createdAt,value
2023-05-17T00:00:10.951Z,1015.95
2023-05-17T00:00:43.389Z,1015.96
2023-05-17T00:01:15.893Z,1015.96
2023-05-17T00:01:48.418Z,1015.96
2023-05-17T00:02:20.927Z,1015.96
2023-05-17T00:02:53.450Z,1015.98
2023-05-17T00:03:25.924Z,1015.97
2023-05-17T00:03:58.366Z,1015.97
2023-05-17T00:04:30.873Z,1015.98
2023-05-17T00:05:03.323Z,1015.99
2023-05-17T00:05:35.750Z,1015.99
2023-05-17T00:06:08.380Z,1016.00
2023-05-17T00:06:40.849Z,1016.00
2023-05-17T00:07:13.386Z,1015.99
2023-05-17T00:07:45.929Z,1016.00
2023-05-17T00:08:18.447Z,1015.99
2023-05-17T00:08:50.946Z,1016.00
2023-05-17T00:09:23.479Z,1016.00
2023-05-17T00:09:56.004Z,1015.99
2023-05-17T00:10:28.504Z,1015.99
2023-05-17T00:11:01.062Z,1015.98
2023-05-17T00:11:33.548Z,1015.97
2023-05-17T00:12:06.068Z,1015.97
2023-05-17T00:12:38.514Z,1015.98
2023-05-17T00:13:11.009Z,1015.97
2023-05-17T00:13:43.483Z,1015.97
2023-05-17T00:14:16.013Z,1015.97
2023-05-17T00:14:48.494Z,1015.97
2023-05-17T00:15:20.972Z,1015.96
2023-05-17T00:15:53.588Z,1015.94
2023-05-17T00:16:26.118Z,1015.96
2023-05-17T00:16:58.589Z,1015.96
2023-05-17T00:17:31.168Z,1015.94
2023-05-17T00:18:03.702Z,1015.95
2023-05-17T00:18:36.131Z,1015.94
2023-05-17T00:19:08.584Z,1015.92
2023-05-17T00:19:41.106Z,1015.93
2023-05-17T00:20:13.546Z,1015.92
2023-05-17T00:20:46.054Z,1015.91
2023-05-17T00:21:18.565Z,1015.92
2023-05-17T00:21:51.099Z,1015.91
2023-05-17T00:22:23.620Z,1015.89
2023-05-17T00:22:56.316Z,1015.88
2023-05-17T00:23:28.885Z,1015.91
2023-05-17T00:24:01.371Z,1015.90
2023-05-17T00:24:33.868Z,1015.89
2023-05-17T00:25:06.386Z,1015.88
2023-05-17T00:25:38.917Z,1015.88
2023-05-17T00:26:11.391Z,1015.86
2023-05-17T00:26:43.866Z,1015.86
2023-05-17T00:27:16.409Z,1015.87
2023-05-17T00:27:48.908Z,1015.88
2023-05-17T00:28:21.412Z,1015.86
2023-05-17T00:28:53.903Z,1015.88
2023-05-17T00:29:26.387Z,1015.86
2023-05-17T00:29:58.843Z,1015.87
2023-05-17T00:30:31.360Z,1015.88
2023-05-17T00:31:03.865Z,1015.89
2023-05-17T00:31:36.358Z,1015.90
2023-05-17T00:32:08.886Z,1015.88
2023-05-17T00:32:41.456Z,1015.87
2023-05-17T00:33:13.931Z,1015.86
2023-05-17T00:33:46.468Z,1015.87
2023-05-17T00:34:18.991Z,1015.88
2023-05-17T00:34:51.527Z,1015.88
2023-05-17T00:35:24.239Z,1015.89
2023-05-17T00:35:56.582Z,1015.88
2023-05-17T00:36:29.087Z,1015.88
2023-05-17T00:37:01.551Z,1015.89
2023-05-17T00:37:34.020Z,1015.90
2023-05-17T00:38:06.568Z,1015.91
2023-05-17T00:38:39.053Z,1015.92
2023-05-17T00:39:11.577Z,1015.94
2023-05-17T00:39:44.087Z,1015.92
2023-05-17T00:40:16.626Z,1015.91
2023-05-17T00:40:49.096Z,1015.95
2023-05-17T00:41:21.550Z,1015.93
2023-05-17T00:41:54.051Z,1015.93
2023-05-17T00:42:26.538Z,1015.93
2023-05-17T00:42:59.026Z,1015.95
2023-05-17T00:43:31.560Z,1015.92
2023-05-17T00:44:04.098Z,1015.93
2023-05-17T00:44:36.637Z,1015.91
2023-05-17T00:45:09.166Z,1015.90
2023-05-17T00:45:41.668Z,1015.91
2023-05-17T00:46:14.197Z,1015.93
2023-05-17T00:46:46.714Z,1015.92
2023-05-17T00:47:19.246Z,1015.94
2023-05-17T00:47:51.769Z,1015.93
2023-05-17T00:48:24.311Z,1015.93
2023-05-17T00:48:56.772Z,1015.92
2023-05-17T00:49:29.278Z,1015.91
2023-05-17T00:50:01.791Z,1015.93
2023-05-17T00:50:34.270Z,1015.92
2023-05-17T00:51:06.802Z,1015.91
2023-05-17T00:51:39.312Z,1015.92
2023-05-17T00:52:12.435Z,1015.94
2023-05-17T00:52:54.182Z,1015.92
2023-05-17T00:53:26.699Z,1015.93
2023-05-17T00:53:59.134Z,1015.93
2023-05-17T00:54:31.632Z,1015.91
2023-05-17T00:55:04.112Z,1015.93
2023-05-17T00:58:03.324Z,1015.90
2023-05-17T00:58:35.780Z,1015.89
2023-05-17T00:59:08.276Z,1015.90
2023-05-17T00:59:40.700Z,1015.90
2023-05-17T01:00:13.173Z,1015.90
2023-05-17T01:00:45.636Z,1015.90
2023-05-17T01:01:18.066Z,1015.91
2023-05-17T01:01:50.496Z,1015.92
2023-05-17T01:02:22.924Z,1015.90
2023-05-17T01:02:55.384Z,1015.92
2023-05-17T01:03:27.938Z,1015.92
2023-05-17T01:04:00.367Z,1015.92
2023-05-17T01:04:32.804Z,1015.88
2023-05-17T01:05:05.267Z,1015.88
2023-05-17T01:05:37.619Z,1015.89
2023-05-17T01:06:10.156Z,1015.89
2023-05-17T01:06:42.611Z,1015.89
2023-05-17T01:07:15.063Z,1015.88
2023-05-17T01:07:47.510Z,1015.89
2023-05-17T01:08:19.943Z,1015.89
2023-05-17T01:08:52.451Z,1015.88
2023-05-17T01:09:31.986Z,1015.89
2023-05-17T01:10:04.431Z,1015.89
2023-05-17T01:10:36.918Z,1015.89
2023-05-17T01:11:09.519Z,1015.87
2023-05-17T01:11:41.969Z,1015.88
2023-05-17T01:12:14.503Z,1015.88
2023-05-17T01:12:47.022Z,1015.88
2023-05-17T01:13:19.472Z,1015.89
2023-05-17T01:13:51.950Z,1015.88
2023-05-17T01:14:24.451Z,1015.88
2023-05-17T01:14:56.912Z,1015.90
2023-05-17T01:15:29.605Z,1015.89
2023-05-17T01:16:01.860Z,1015.88
2023-05-17T01:16:34.360Z,1015.88
2023-05-17T01:17:06.894Z,1015.88
2023-05-17T01:17:39.566Z,1015.87
2023-05-17T01:18:12.058Z,1015.88
2023-05-17T01:18:44.675Z,1015.88
2023-05-17T01:19:16.932Z,1015.90
2023-05-17T01:19:49.419Z,1015.91
2023-05-17T01:20:21.951Z,1015.92
2023-05-17T01:21:01.495Z,1015.93
2023-05-17T01:21:33.927Z,1015.94
2023-05-17T01:22:06.368Z,1015.93
2023-05-17T01:22:38.807Z,1015.94
2023-05-17T01:23:11.305Z,1015.96
2023-05-17T01:23:43.790Z,1015.96
2023-05-17T01:24:16.324Z,1015.97
2023-05-17T01:24:48.811Z,1015.96
2023-05-17T01:25:21.283Z,1015.95
2023-05-17T01:25:53.702Z,1015.96
2023-05-17T01:26:26.144Z,1015.97
2023-05-17T01:26:58.621Z,1015.96
2023-05-17T01:27:31.095Z,1015.96
2023-05-17T01:28:03.618Z,1015.95
2023-05-17T01:28:36.111Z,1015.94
2023-05-17T01:29:08.525Z,1015.95
2023-05-17T01:29:41.021Z,1015.93
2023-05-17T01:30:13.497Z,1015.94
2023-05-17T01:30:46.334Z,1015.92
2023-05-17T01:31:18.812Z,1015.91
2023-05-17T01:31:51.290Z,1015.91
2023-05-17T01:32:23.800Z,1015.93
2023-05-17T01:32:56.256Z,1015.93
2023-05-17T01:33:28.891Z,1015.92
2023-05-17T01:34:01.377Z,1015.91
2023-05-17T01:34:33.696Z,1015.92
2023-05-17T01:35:06.344Z,1015.90
2023-05-17T01:35:38.886Z,1015.91
2023-05-17T01:36:11.328Z,1015.91
2023-05-17T01:36:43.832Z,1015.91
2023-05-17T01:37:16.330Z,1015.92
2023-05-17T01:37:48.811Z,1015.92
2023-05-17T01:38:21.429Z,1015.92
2023-05-17T01:38:53.861Z,1015.93
2023-05-17T01:39:26.410Z,1015.92
2023-05-17T01:39:59.334Z,1015.93
2023-05-17T01:40:31.766Z,1015.94
2023-05-17T01:41:04.204Z,1015.95
2023-05-17T01:41:36.682Z,1015.97
2023-05-17T01:42:09.132Z,1015.98
2023-05-17T01:42:41.628Z,1016.00
2023-05-17T01:43:14.072Z,1016.03
2023-05-17T01:43:46.520Z,1016.03
2023-05-17T01:44:18.969Z,1016.06
2023-05-17T01:44:51.480Z,1016.06
2023-05-17T01:45:23.987Z,1016.07
2023-05-17T01:45:56.459Z,1016.08
2023-05-17T01:46:28.901Z,1016.06
2023-05-17T01:47:01.442Z,1016.07
2023-05-17T01:47:33.928Z,1016.07
2023-05-17T01:48:06.584Z,1016.08
2023-05-17T01:48:38.951Z,1016.08
2023-05-17T01:49:11.316Z,1016.10
2023-05-17T01:49:43.837Z,1016.10
2023-05-17T01:50:16.338Z,1016.08
2023-05-17T01:50:48.825Z,1016.09
2023-05-17T01:51:21.283Z,1016.09
2023-05-17T01:51:53.719Z,1016.09
2023-05-17T01:52:26.239Z,1016.08
2023-05-17T01:52:58.759Z,1016.08
2023-05-17T01:53:31.283Z,1016.09
2023-05-17T01:54:03.805Z,1016.08
2023-05-17T01:54:36.295Z,1016.08
2023-05-17T01:55:08.782Z,1016.08
2023-05-17T01:55:41.271Z,1016.07
2023-05-17T01:56:13.841Z,1016.06
2023-05-17T01:56:46.367Z,1016.07
2023-05-17T01:57:18.872Z,1016.08
2023-05-17T01:57:51.436Z,1016.09
2023-05-17T01:58:23.927Z,1016.10
2023-05-17T01:58:56.375Z,1016.09
2023-05-17T01:59:28.928Z,1016.09
2023-05-17T02:00:01.416Z,1016.09
2023-05-17T02:00:33.854Z,1016.10
2023-05-17T02:01:06.397Z,1016.09
2023-05-17T02:01:38.870Z,1016.10
2023-05-17T02:02:11.328Z,1016.09
2023-05-17T02:02:43.835Z,1016.09
2023-05-17T02:03:16.303Z,1016.08
2023-05-17T02:03:48.825Z,1016.10
2023-05-17T02:04:21.390Z,1016.11
2023-05-17T02:04:53.893Z,1016.10
2023-05-17T02:05:26.469Z,1016.11
2023-05-17T02:05:58.844Z,1016.12
2023-05-17T02:06:31.303Z,1016.12
2023-05-17T02:07:03.811Z,1016.14
2023-05-17T02:07:36.273Z,1016.13
2023-05-17T02:08:08.715Z,1016.16
2023-05-17T02:08:41.242Z,1016.15
2023-05-17T02:09:13.730Z,1016.16
2023-05-17T02:09:46.162Z,1016.17
2023-05-17T02:10:18.746Z,1016.16
2023-05-17T02:10:51.229Z,1016.15
2023-05-17T02:11:23.785Z,1016.16
2023-05-17T02:11:56.197Z,1016.15
2023-05-17T02:12:28.692Z,1016.15
2023-05-17T02:13:01.182Z,1016.16
2023-05-17T02:13:33.707Z,1016.16
2023-05-17T02:14:06.170Z,1016.16
2023-05-17T02:14:38.654Z,1016.16
2023-05-17T02:15:11.139Z,1016.15
2023-05-17T02:15:43.640Z,1016.18
2023-05-17T02:16:16.113Z,1016.18
2023-05-17T02:16:48.562Z,1016.19
2023-05-17T02:17:21.049Z,1016.19
2023-05-17T02:17:53.567Z,1016.19
2023-05-17T02:18:26.037Z,1016.19
2023-05-17T02:18:58.538Z,1016.20
2023-05-17T02:19:30.988Z,1016.20
2023-05-17T02:20:03.388Z,1016.20
2023-05-17T02:20:35.881Z,1016.20
2023-05-17T02:21:08.328Z,1016.21
2023-05-17T02:21:40.763Z,1016.21
2023-05-17T02:22:13.237Z,1016.21
2023-05-17T02:22:45.681Z,1016.21
2023-05-17T02:23:18.168Z,1016.21
2023-05-17T02:23:50.640Z,1016.22
2023-05-17T02:24:23.205Z,1016.23
2023-05-17T02:24:55.629Z,1016.24
2023-05-17T02:25:28.456Z,1016.25
2023-05-17T02:26:00.565Z,1016.26
2023-05-17T02:26:33.063Z,1016.27
2023-05-17T02:27:05.611Z,1016.27
2023-05-17T02:27:38.111Z,1016.28
2023-05-17T02:28:10.574Z,1016.27
2023-05-17T02:28:43.061Z,1016.28
2023-05-17T02:29:15.529Z,1016.28
2023-05-17T02:29:48.006Z,1016.28
2023-05-17T02:30:20.478Z,1016.28
2023-05-17T02:30:52.967Z,1016.25
2023-05-17T02:31:25.463Z,1016.26
2023-05-17T02:31:57.930Z,1016.27
2023-05-17T02:32:30.437Z,1016.28
2023-05-17T02:33:03.063Z,1016.28
2023-05-17T02:33:35.484Z,1016.29
2023-05-17T02:34:07.809Z,1016.29
2023-05-17T02:34:40.255Z,1016.32
2023-05-17T02:35:12.763Z,1016.32
2023-05-17T02:35:45.240Z,1016.34
2023-05-17T02:36:17.770Z,1016.34
2023-05-17T02:36:50.275Z,1016.35
2023-05-17T02:37:22.728Z,1016.36
2023-05-17T02:37:55.196Z,1016.36
2023-05-17T02:38:27.672Z,1016.36
2023-05-17T02:39:00.166Z,1016.36
2023-05-17T02:39:32.647Z,1016.37
2023-05-17T02:40:05.143Z,1016.38
2023-05-17T02:40:37.649Z,1016.37
2023-05-17T02:41:10.107Z,1016.39
2023-05-17T02:41:42.570Z,1016.39
2023-05-17T02:42:14.998Z,1016.39
2023-05-17T02:42:47.506Z,1016.40
2023-05-17T02:43:19.980Z,1016.41
2023-05-17T02:43:52.458Z,1016.42
2023-05-17T02:44:24.975Z,1016.44
2023-05-17T02:44:57.455Z,1016.43
2023-05-17T02:45:30.099Z,1016.44
2023-05-17T02:46:02.334Z,1016.44
2023-05-17T02:46:36.393Z,1016.44
2023-05-17T02:47:07.387Z,1016.45
2023-05-17T02:47:39.921Z,1016.45
2023-05-17T02:48:12.351Z,1016.46
2023-05-17T02:48:44.797Z,1016.45
2023-05-17T02:49:17.310Z,1016.45
2023-05-17T02:49:49.784Z,1016.46
2023-05-17T02:50:22.281Z,1016.47
2023-05-17T02:50:54.773Z,1016.48
2023-05-17T02:51:27.260Z,1016.49
2023-05-17T02:51:59.753Z,1016.50
2023-05-17T02:52:32.287Z,1016.50
2023-05-17T02:53:04.742Z,1016.50
2023-05-17T02:53:37.185Z,1016.50
2023-05-17T02:54:09.678Z,1016.51
2023-05-17T02:54:42.170Z,1016.51
2023-05-17T02:55:14.660Z,1016.51
2023-05-17T02:55:47.150Z,1016.52
2023-05-17T02:56:19.644Z,1016.53
2023-05-17T02:56:52.135Z,1016.53
2023-05-17T02:57:24.648Z,1016.53
2023-05-17T02:57:57.124Z,1016.53
2023-05-17T02:58:29.604Z,1016.52
2023-05-17T02:59:02.104Z,1016.54
2023-05-17T02:59:34.521Z,1016.55
2023-05-17T03:00:06.993Z,1016.57
2023-05-17T03:00:39.430Z,1016.58
2023-05-17T03:01:11.881Z,1016.59
2023-05-17T03:01:44.354Z,1016.61
2023-05-17T03:02:16.902Z,1016.63
2023-05-17T03:02:49.386Z,1016.64
2023-05-17T03:03:21.936Z,1016.63
2023-05-17T03:03:54.590Z,1016.65
2023-05-17T03:04:26.862Z,1016.65
2023-05-17T03:04:59.376Z,1016.62
2023-05-17T03:05:31.852Z,1016.63
2023-05-17T03:06:04.302Z,1016.64
2023-05-17T03:06:36.787Z,1016.62
2023-05-17T03:07:09.305Z,1016.62
2023-05-17T03:07:41.779Z,1016.63
2023-05-17T03:08:14.255Z,1016.63
2023-05-17T03:08:46.745Z,1016.63
2023-05-17T03:09:19.177Z,1016.63
2023-05-17T03:09:51.657Z,1016.63
2023-05-17T03:10:24.176Z,1016.62
2023-05-17T03:10:56.638Z,1016.63
2023-05-17T03:11:29.083Z,1016.64
2023-05-17T03:12:01.528Z,1016.63
2023-05-17T03:12:33.962Z,1016.64
2023-05-17T03:13:06.385Z,1016.64
2023-05-17T03:13:38.834Z,1016.63
2023-05-17T03:14:11.271Z,1016.65
2023-05-17T03:14:43.711Z,1016.65
2023-05-17T03:15:16.211Z,1016.66
2023-05-17T03:15:48.696Z,1016.66
2023-05-17T03:16:21.168Z,1016.67
2023-05-17T03:16:53.659Z,1016.66
2023-05-17T03:17:26.154Z,1016.65
2023-05-17T03:17:58.669Z,1016.65
2023-05-17T03:18:31.081Z,1016.65
2023-05-17T03:19:03.706Z,1016.67
2023-05-17T03:19:36.020Z,1016.67
2023-05-17T03:20:08.530Z,1016.67
2023-05-17T03:20:40.990Z,1016.69
2023-05-17T03:21:13.515Z,1016.68
2023-05-17T03:21:45.949Z,1016.69
2023-05-17T03:22:18.414Z,1016.70
2023-05-17T03:22:50.874Z,1016.70
2023-05-17T03:23:23.348Z,1016.72
2023-05-17T03:23:55.853Z,1016.72
2023-05-17T03:24:28.391Z,1016.73
2023-05-17T03:25:00.854Z,1016.74
2023-05-17T03:25:33.278Z,1016.76
2023-05-17T03:26:05.795Z,1016.75
2023-05-17T03:26:38.279Z,1016.76
2023-05-17T03:27:10.795Z,1016.78
2023-05-17T03:27:43.311Z,1016.78
2023-05-17T03:28:15.754Z,1016.77
2023-05-17T03:28:48.215Z,1016.79
2023-05-17T03:29:20.734Z,1016.78
2023-05-17T03:29:53.156Z,1016.80
2023-05-17T03:30:25.655Z,1016.81
2023-05-17T03:30:58.108Z,1016.81
2023-05-17T03:31:30.505Z,1016.80
2023-05-17T03:32:02.991Z,1016.81
2023-05-17T03:32:35.542Z,1016.82
2023-05-17T03:33:08.006Z,1016.82
2023-05-17T03:33:40.552Z,1016.83
2023-05-17T03:34:12.872Z,1016.84
2023-05-17T03:34:45.318Z,1016.84
2023-05-17T03:35:17.793Z,1016.83
2023-05-17T03:35:50.448Z,1016.84
2023-05-17T03:36:22.904Z,1016.84
2023-05-17T03:36:55.329Z,1016.85
2023-05-17T03:37:27.866Z,1016.85
2023-05-17T03:38:00.361Z,1016.85
2023-05-17T03:38:32.858Z,1016.85
2023-05-17T03:39:05.342Z,1016.86
2023-05-17T03:39:37.811Z,1016.85
2023-05-17T03:40:10.252Z,1016.85
2023-05-17T03:40:42.699Z,1016.86
2023-05-17T03:41:15.203Z,1016.86
2023-05-17T03:41:47.697Z,1016.84
2023-05-17T03:42:20.193Z,1016.85
2023-05-17T03:42:52.619Z,1016.85
2023-05-17T03:43:25.122Z,1016.87
2023-05-17T03:43:57.630Z,1016.87
2023-05-17T03:44:30.148Z,1016.89
2023-05-17T03:45:02.649Z,1016.89
2023-05-17T03:45:35.151Z,1016.91
2023-05-17T03:46:07.583Z,1016.92
2023-05-17T03:46:40.072Z,1016.93
2023-05-17T03:47:12.549Z,1016.92
2023-05-17T03:47:45.074Z,1016.94
2023-05-17T03:48:17.556Z,1016.95
2023-05-17T03:48:50.025Z,1016.96
2023-05-17T03:49:22.499Z,1016.95
2023-05-17T03:49:55.005Z,1016.97
2023-05-17T03:50:27.429Z,1016.99
2023-05-17T03:50:59.887Z,1017.00
2023-05-17T03:51:32.323Z,1016.99
2023-05-17T03:52:04.780Z,1017.01
2023-05-17T03:52:37.261Z,1017.01
2023-05-17T03:53:09.768Z,1017.03
2023-05-17T03:53:42.226Z,1017.04
2023-05-17T03:54:14.683Z,1017.04
2023-05-17T03:54:48.260Z,1017.03
2023-05-17T03:55:19.632Z,1017.04
2023-05-17T03:55:52.082Z,1017.02
2023-05-17T03:56:24.572Z,1017.01
2023-05-17T03:56:57.104Z,1017.04
2023-05-17T03:57:29.616Z,1017.06
2023-05-17T03:58:02.109Z,1017.06
2023-05-17T03:58:34.542Z,1017.08
2023-05-17T03:59:07.086Z,1017.08
2023-05-17T03:59:39.617Z,1017.09
2023-05-17T04:00:12.102Z,1017.08
2023-05-17T04:00:44.603Z,1017.09
2023-05-17T04:01:17.115Z,1017.07
2023-05-17T04:01:49.603Z,1017.08
2023-05-17T04:02:22.132Z,1017.08
2023-05-17T04:02:54.570Z,1017.08
2023-05-17T04:03:27.029Z,1017.08
2023-05-17T04:03:59.593Z,1017.10
2023-05-17T04:04:32.066Z,1017.09
2023-05-17T04:05:04.578Z,1017.09
2023-05-17T04:05:37.060Z,1017.09
2023-05-17T04:06:09.540Z,1017.12
2023-05-17T04:06:41.986Z,1017.14
2023-05-17T04:07:14.457Z,1017.14
2023-05-17T04:07:46.920Z,1017.13
2023-05-17T04:08:19.389Z,1017.15
2023-05-17T04:08:51.882Z,1017.15
2023-05-17T04:09:24.332Z,1017.16
2023-05-17T04:09:56.776Z,1017.18
2023-05-17T04:10:29.245Z,1017.19
2023-05-17T04:11:01.722Z,1017.20
2023-05-17T04:11:34.184Z,1017.21
2023-05-17T04:12:06.636Z,1017.19
2023-05-17T04:12:39.113Z,1017.19
2023-05-17T04:13:11.547Z,1017.18
2023-05-17T04:13:44.049Z,1017.16
2023-05-17T04:14:16.528Z,1017.14
2023-05-17T04:14:49.038Z,1017.13
2023-05-17T04:15:21.993Z,1017.15
2023-05-17T04:15:53.961Z,1017.14
2023-05-17T04:16:26.446Z,1017.16
2023-05-17T04:16:58.950Z,1017.16
2023-05-17T04:17:31.449Z,1017.15
2023-05-17T04:18:04.011Z,1017.16
2023-05-17T04:18:36.553Z,1017.17
2023-05-17T04:19:08.938Z,1017.18
2023-05-17T04:19:41.369Z,1017.18
2023-05-17T04:20:13.860Z,1017.19
2023-05-17T04:20:46.351Z,1017.18
2023-05-17T04:21:18.810Z,1017.21
2023-05-17T04:21:51.249Z,1017.20
2023-05-17T04:22:23.701Z,1017.20
2023-05-17T04:22:56.167Z,1017.22
2023-05-17T04:23:28.662Z,1017.22
2023-05-17T04:24:01.135Z,1017.23
2023-05-17T04:24:33.677Z,1017.23
2023-05-17T04:25:06.123Z,1017.23
2023-05-17T04:25:38.615Z,1017.24
2023-05-17T04:26:11.090Z,1017.27
2023-05-17T04:26:43.596Z,1017.27
2023-05-17T04:27:16.080Z,1017.26
2023-05-17T04:27:48.580Z,1017.27
2023-05-17T04:28:21.062Z,1017.27
2023-05-17T04:28:53.524Z,1017.28
2023-05-17T04:29:26.035Z,1017.29
2023-05-17T04:29:58.524Z,1017.30
2023-05-17T04:30:30.974Z,1017.30
2023-05-17T04:31:03.430Z,1017.31
2023-05-17T04:31:35.867Z,1017.34
2023-05-17T04:32:08.310Z,1017.33
2023-05-17T04:32:40.785Z,1017.33
2023-05-17T04:33:14.312Z,1017.33
2023-05-17T04:33:45.856Z,1017.32
2023-05-17T04:34:18.292Z,1017.32
2023-05-17T04:34:50.735Z,1017.33
2023-05-17T04:35:23.254Z,1017.32
2023-05-17T04:35:55.768Z,1017.34
2023-05-17T04:36:28.237Z,1017.36
2023-05-17T04:37:00.744Z,1017.36
2023-05-17T04:37:33.252Z,1017.38
2023-05-17T04:38:05.755Z,1017.39
2023-05-17T04:38:38.364Z,1017.40
2023-05-17T04:39:10.849Z,1017.42
2023-05-17T04:39:43.353Z,1017.43
2023-05-17T04:40:15.825Z,1017.44
2023-05-17T04:40:48.326Z,1017.44
2023-05-17T04:41:20.811Z,1017.47
2023-05-17T04:41:53.318Z,1017.49
2023-05-17T04:42:25.770Z,1017.49
2023-05-17T04:42:58.241Z,1017.51
2023-05-17T04:43:30.725Z,1017.53
2023-05-17T04:44:03.236Z,1017.54
2023-05-17T04:44:35.683Z,1017.54
2023-05-17T04:45:08.139Z,1017.54
2023-05-17T04:45:40.594Z,1017.54
2023-05-17T04:46:13.079Z,1017.57
2023-05-17T04:46:45.569Z,1017.58
2023-05-17T04:47:18.103Z,1017.59
2023-05-17T04:47:50.618Z,1017.61
2023-05-17T04:48:23.122Z,1017.60
2023-05-17T04:48:55.689Z,1017.63
2023-05-17T04:49:28.013Z,1017.63
2023-05-17T04:50:00.488Z,1017.63
2023-05-17T04:50:32.914Z,1017.64
2023-05-17T04:51:05.486Z,1017.63
2023-05-17T04:51:37.939Z,1017.64
2023-05-17T04:52:10.388Z,1017.63
2023-05-17T04:52:42.879Z,1017.64
2023-05-17T04:53:15.313Z,1017.64
2023-05-17T04:53:47.798Z,1017.65
2023-05-17T04:54:20.283Z,1017.65
2023-05-17T04:54:52.793Z,1017.64
2023-05-17T04:55:25.300Z,1017.67
2023-05-17T04:55:57.854Z,1017.67
2023-05-17T04:56:30.363Z,1017.64
2023-05-17T04:57:02.870Z,1017.67
2023-05-17T04:57:35.379Z,1017.65
2023-05-17T04:58:07.906Z,1017.66
2023-05-17T04:58:40.369Z,1017.67
2023-05-17T04:59:12.800Z,1017.66
2023-05-17T04:59:45.259Z,1017.67
2023-05-17T05:00:17.756Z,1017.69
2023-05-17T05:00:50.198Z,1017.71
2023-05-17T05:01:22.637Z,1017.73
2023-05-17T05:01:55.071Z,1017.75
2023-05-17T05:02:27.567Z,1017.79
2023-05-17T05:03:00.101Z,1017.78
2023-05-17T05:03:32.586Z,1017.81
2023-05-17T05:04:05.156Z,1017.83
2023-05-17T05:04:37.693Z,1017.84
2023-05-17T05:05:10.047Z,1017.85
2023-05-17T05:05:42.479Z,1017.85
2023-05-17T05:06:14.924Z,1017.88
2023-05-17T05:06:47.412Z,1017.88
2023-05-17T05:07:19.899Z,1017.88
2023-05-17T05:07:52.428Z,1017.91
2023-05-17T05:08:24.968Z,1017.93
2023-05-17T05:08:57.478Z,1017.94
2023-05-17T05:09:30.790Z,1017.94
2023-05-17T05:10:02.622Z,1017.94
2023-05-17T05:10:35.098Z,1017.96
2023-05-17T05:11:07.641Z,1017.97
2023-05-17T05:11:40.206Z,1017.97
2023-05-17T05:12:12.737Z,1017.95
2023-05-17T05:12:45.305Z,1017.96
2023-05-17T05:13:17.812Z,1017.98
2023-05-17T05:13:50.298Z,1017.97
2023-05-17T05:14:22.985Z,1018.00
2023-05-17T05:14:55.274Z,1017.99
2023-05-17T05:15:27.904Z,1018.01
2023-05-17T05:16:00.302Z,1018.02
2023-05-17T05:16:32.837Z,1018.02
2023-05-17T05:17:05.318Z,1018.03
2023-05-17T05:17:37.910Z,1018.03
2023-05-17T05:18:10.420Z,1018.06
2023-05-17T05:18:42.963Z,1018.07
2023-05-17T05:19:15.470Z,1018.07
2023-05-17T05:19:47.927Z,1018.08
2023-05-17T05:20:20.352Z,1018.07
2023-05-17T05:20:52.864Z,1018.08
2023-05-17T05:21:25.439Z,1018.09
2023-05-17T05:21:57.894Z,1018.08
2023-05-17T05:22:30.362Z,1018.09
2023-05-17T05:23:02.841Z,1018.10
2023-05-17T05:23:35.362Z,1018.10
2023-05-17T05:24:07.813Z,1018.10
2023-05-17T05:24:40.274Z,1018.09
2023-05-17T05:25:12.740Z,1018.10
2023-05-17T05:25:45.224Z,1018.10
2023-05-17T05:26:17.791Z,1018.07
2023-05-17T05:26:50.264Z,1018.11
2023-05-17T05:27:22.717Z,1018.11
2023-05-17T05:27:55.195Z,1018.11
2023-05-17T05:28:27.654Z,1018.13
2023-05-17T05:29:00.119Z,1018.14
2023-05-17T05:29:32.597Z,1018.14
2023-05-17T05:30:05.058Z,1018.15
2023-05-17T05:30:37.560Z,1018.15
2023-05-17T05:31:10.031Z,1018.17
2023-05-17T05:31:42.621Z,1018.19
2023-05-17T05:32:15.019Z,1018.19
2023-05-17T05:32:47.588Z,1018.21
2023-05-17T05:33:20.135Z,1018.21
2023-05-17T05:33:52.610Z,1018.21
2023-05-17T05:34:25.031Z,1018.22
2023-05-17T05:34:57.568Z,1018.24
2023-05-17T05:35:30.500Z,1018.24
2023-05-17T05:36:02.547Z,1018.25
2023-05-17T05:36:35.026Z,1018.25
2023-05-17T05:37:07.470Z,1018.25
2023-05-17T05:37:39.912Z,1018.27
2023-05-17T05:38:12.367Z,1018.28
2023-05-17T05:38:44.812Z,1018.28
2023-05-17T05:39:17.340Z,1018.27
2023-05-17T05:39:49.822Z,1018.27
2023-05-17T05:40:22.371Z,1018.28
2023-05-17T05:40:54.830Z,1018.31
2023-05-17T05:41:27.337Z,1018.31
2023-05-17T05:41:59.795Z,1018.34
2023-05-17T05:42:32.264Z,1018.34
2023-05-17T05:43:04.775Z,1018.33
2023-05-17T05:43:37.279Z,1018.31
2023-05-17T05:44:09.754Z,1018.29
2023-05-17T05:44:42.247Z,1018.30
2023-05-17T05:45:14.695Z,1018.32
2023-05-17T05:45:47.210Z,1018.31
2023-05-17T05:46:19.668Z,1018.27
2023-05-17T05:46:52.119Z,1018.29
2023-05-17T05:47:24.622Z,1018.31
2023-05-17T05:47:57.148Z,1018.32
2023-05-17T05:48:29.746Z,1018.32
2023-05-17T05:49:02.234Z,1018.35
2023-05-17T05:49:34.631Z,1018.35
2023-05-17T05:50:07.082Z,1018.37
2023-05-17T05:50:39.522Z,1018.37
2023-05-17T05:51:12.027Z,1018.38
2023-05-17T05:51:45.377Z,1018.39
2023-05-17T05:52:17.819Z,1018.36
2023-05-17T05:52:50.290Z,1018.40
2023-05-17T05:53:22.866Z,1018.40
2023-05-17T05:53:55.336Z,1018.40
2023-05-17T05:54:27.731Z,1018.39
2023-05-17T05:55:00.251Z,1018.42
2023-05-17T05:55:32.730Z,1018.42
2023-05-17T05:56:05.179Z,1018.44
2023-05-17T05:56:37.634Z,1018.43
2023-05-17T05:57:10.110Z,1018.42
2023-05-17T05:57:42.596Z,1018.45
2023-05-17T05:58:15.119Z,1018.46
2023-05-17T05:58:47.586Z,1018.44
2023-05-17T05:59:20.044Z,1018.43
2023-05-17T05:59:52.518Z,1018.43
2023-05-17T06:00:24.965Z,1018.47
2023-05-17T06:00:57.456Z,1018.47
2023-05-17T06:01:29.928Z,1018.49
2023-05-17T06:02:02.425Z,1018.52
2023-05-17T06:02:34.969Z,1018.53
2023-05-17T06:03:07.448Z,1018.55
2023-05-17T06:03:39.902Z,1018.54
2023-05-17T06:04:12.399Z,1018.53
2023-05-17T06:04:46.022Z,1018.57
2023-05-17T06:05:17.481Z,1018.56
2023-05-17T06:05:50.046Z,1018.57
2023-05-17T06:06:22.463Z,1018.59
2023-05-17T06:06:54.920Z,1018.64
2023-05-17T06:07:27.411Z,1018.62
2023-05-17T06:07:59.913Z,1018.67
2023-05-17T06:08:32.369Z,1018.69
2023-05-17T06:09:04.966Z,1018.69
2023-05-17T06:09:37.432Z,1018.72
2023-05-17T06:10:09.929Z,1018.74
2023-05-17T06:10:42.404Z,1018.77
2023-05-17T06:11:14.885Z,1018.78
2023-05-17T06:11:47.340Z,1018.78
2023-05-17T06:12:19.825Z,1018.81
2023-05-17T06:12:52.320Z,1018.81
2023-05-17T06:13:24.814Z,1018.85
2023-05-17T06:13:57.336Z,1018.80
2023-05-17T06:14:29.812Z,1018.81
2023-05-17T06:15:02.319Z,1018.84
2023-05-17T06:15:34.816Z,1018.85
2023-05-17T06:16:07.290Z,1018.87
2023-05-17T06:16:39.743Z,1018.88
2023-05-17T06:17:12.487Z,1018.84
2023-05-17T06:17:45.028Z,1018.85
2023-05-17T06:18:17.614Z,1018.86
2023-05-17T06:18:51.412Z,1018.89
2023-05-17T06:19:22.708Z,1018.91
2023-05-17T06:19:55.134Z,1018.89
2023-05-17T06:20:27.941Z,1018.93
2023-05-17T06:21:00.209Z,1018.94
2023-05-17T06:21:32.808Z,1018.91
2023-05-17T06:22:05.248Z,1018.93
2023-05-17T06:22:37.747Z,1018.97
2023-05-17T06:23:10.267Z,1018.98
2023-05-17T06:23:42.754Z,1018.99
2023-05-17T06:24:15.246Z,1019.01
2023-05-17T06:24:47.819Z,1019.03
2023-05-17T06:25:20.236Z,1019.03
2023-05-17T06:25:52.760Z,1019.03
2023-05-17T06:26:25.270Z,1019.02
2023-05-17T06:26:57.788Z,1019.03
2023-05-17T06:27:30.263Z,1019.04
2023-05-17T06:28:02.746Z,1019.05
2023-05-17T06:28:35.197Z,1019.04
2023-05-17T06:29:07.701Z,1019.09
2023-05-17T06:29:40.281Z,1019.10
2023-05-17T06:30:12.774Z,1019.11
2023-05-17T06:30:45.289Z,1019.12
2023-05-17T06:31:19.117Z,1019.14
2023-05-17T06:31:50.344Z,1019.09
2023-05-17T06:32:22.859Z,1019.12
2023-05-17T06:32:55.399Z,1019.13
2023-05-17T06:33:27.817Z,1019.14
2023-05-17T06:34:00.359Z,1019.14
2023-05-17T06:34:32.765Z,1019.16
2023-05-17T06:35:05.346Z,1019.14
2023-05-17T06:35:47.947Z,1019.14